createdAt,value
2019-05-28T00:01:36.049Z,1.13
2019-05-28T00:04:06.553Z,1.20
2019-05-28T00:06:37.323Z,5.85
2019-05-28T00:09:09.489Z,0.80
2019-05-28T00:11:40.219Z,1.80
2019-05-28T00:14:10.611Z,0.90
2019-05-28T00:16:41.111Z,0.90
2019-05-28T00:19:11.847Z,4.20
2019-05-28T00:21:42.265Z,1.07
2019-05-28T00:24:12.554Z,0.70
2019-05-28T00:26:43.322Z,1.12
2019-05-28T00:29:13.910Z,1.20
2019-05-28T00:31:44.272Z,1.17
2019-05-28T00:34:16.285Z,1.90
2019-05-28T00:36:46.594Z,1.07
2019-05-28T00:39:17.229Z,1.60
2019-05-28T00:41:47.594Z,1.20
2019-05-28T00:44:17.895Z,1.30
2019-05-28T00:46:48.296Z,3.03
2019-05-28T00:49:18.443Z,0.83
2019-05-28T00:51:48.732Z,1.10
2019-05-28T00:54:22.185Z,1.17
2019-05-28T00:56:53.532Z,1.70
2019-05-28T00:59:24.094Z,2.53
2019-05-28T01:01:54.409Z,4.10
2019-05-28T01:04:24.677Z,1.00
2019-05-28T01:07:00.613Z,1.00
2019-05-28T01:09:30.760Z,1.00
2019-05-28T01:12:01.060Z,0.80
2019-05-28T01:14:33.035Z,3.13
2019-05-28T01:17:06.223Z,1.47
2019-05-28T01:19:36.359Z,1.20
2019-05-28T01:22:06.509Z,1.37
2019-05-28T01:24:36.595Z,2.53
2019-05-28T01:27:06.720Z,1.77
2019-05-28T01:29:37.114Z,5.90
2019-05-28T01:32:07.309Z,4.77
2019-05-28T01:34:37.538Z,1.13
2019-05-28T01:37:07.853Z,1.00
2019-05-28T01:39:38.018Z,0.80
2019-05-28T01:42:08.133Z,0.93
2019-05-28T01:44:38.269Z,0.95
2019-05-28T01:47:10.245Z,2.08
2019-05-28T01:49:40.570Z,1.40
2019-05-28T01:52:10.762Z,0.98
2019-05-28T01:54:40.902Z,2.87
2019-05-28T01:57:11.065Z,1.15
2019-05-28T01:59:41.223Z,1.20
2019-05-28T02:02:13.548Z,1.00
2019-05-28T02:04:43.874Z,1.30
2019-05-28T02:07:14.099Z,1.30
2019-05-28T02:09:44.285Z,2.53
2019-05-28T02:12:14.433Z,4.70
2019-05-28T02:14:43.759Z,3.50
2019-05-28T02:17:13.904Z,2.23
2019-05-28T02:19:44.050Z,3.17
2019-05-28T02:22:14.174Z,2.13
2019-05-28T02:24:44.330Z,2.00
2019-05-28T02:27:15.323Z,2.37
2019-05-28T02:29:45.583Z,1.80
2019-05-28T02:32:15.869Z,1.80
2019-05-28T02:34:47.300Z,3.80
2019-05-28T02:37:17.454Z,2.80
2019-05-28T02:39:47.599Z,2.90
2019-05-28T02:42:17.771Z,3.63
2019-05-28T02:44:48.050Z,2.80
2019-05-28T02:47:18.379Z,3.73
2019-05-28T02:49:48.926Z,3.67
2019-05-28T02:52:19.386Z,6.67
2019-05-28T02:54:50.380Z,6.27
2019-05-28T02:57:20.929Z,6.07
2019-05-28T02:59:52.666Z,7.40
2019-05-28T03:02:25.589Z,12.80
2019-05-28T03:04:57.085Z,13.97
2019-05-28T03:07:28.439Z,7.20
2019-05-28T03:09:59.774Z,4.73
2019-05-28T03:12:29.867Z,8.30
2019-05-28T03:15:00.017Z,9.43
2019-05-28T03:17:31.495Z,5.03
2019-05-28T03:20:03.445Z,5.43
2019-05-28T03:22:35.589Z,8.27
2019-05-28T03:25:07.581Z,8.50
2019-05-28T03:27:37.738Z,7.80
2019-05-28T03:30:08.168Z,9.30
2019-05-28T03:32:38.331Z,8.90
2019-05-28T03:35:09.212Z,7.60
2019-05-28T03:37:40.324Z,11.03
2019-05-28T03:40:11.955Z,8.28
2019-05-28T03:42:42.095Z,11.50
2019-05-28T03:45:12.292Z,7.70
2019-05-28T03:47:42.411Z,9.53
2019-05-28T03:50:12.568Z,8.93
2019-05-28T03:52:42.744Z,9.67
2019-05-28T03:55:13.329Z,10.40
2019-05-28T03:57:43.749Z,9.57
2019-05-28T04:00:14.353Z,18.73
2019-05-28T04:02:45.659Z,11.97
2019-05-28T04:05:15.811Z,10.78
2019-05-28T04:07:45.930Z,9.97
2019-05-28T04:10:16.158Z,11.15
2019-05-28T04:12:46.338Z,12.47
2019-05-28T04:15:17.044Z,12.03
2019-05-28T04:17:47.423Z,15.30
2019-05-28T04:20:17.799Z,11.67
2019-05-28T04:22:47.947Z,10.57
2019-05-28T04:31:43.439Z,10.20
2019-05-28T04:34:13.634Z,13.83
2019-05-28T04:36:43.965Z,10.10
2019-05-28T04:39:14.200Z,9.70
2019-05-28T04:41:44.511Z,9.10
2019-05-28T04:44:14.749Z,8.83
2019-05-28T04:46:45.303Z,8.50
2019-05-28T04:49:16.591Z,9.00
2019-05-28T04:51:46.911Z,10.40
2019-05-28T04:54:17.058Z,12.67
2019-05-28T04:56:47.245Z,8.87
2019-05-28T04:59:17.431Z,8.60
2019-05-28T05:01:47.772Z,8.77
2019-05-28T05:04:19.100Z,9.40
2019-05-28T05:06:49.308Z,9.00
2019-05-28T05:09:20.089Z,9.17
2019-05-28T05:11:50.496Z,9.50
2019-05-28T05:14:20.714Z,8.60
2019-05-28T05:16:50.910Z,8.90
2019-05-28T05:19:21.127Z,10.90
2019-05-28T05:21:51.572Z,8.60
2019-05-28T05:24:22.807Z,8.43
2019-05-28T05:26:53.235Z,8.77
2019-05-28T05:29:23.757Z,5.87
2019-05-28T05:31:55.040Z,4.33
2019-05-28T05:34:25.231Z,3.87
2019-05-28T05:36:55.500Z,4.03
2019-05-28T05:39:25.639Z,3.87
2019-05-28T05:41:55.938Z,4.60
2019-05-28T05:44:26.135Z,6.20
2019-05-28T05:46:56.329Z,2.45
2019-05-28T05:49:26.471Z,5.25
2019-05-28T05:51:56.623Z,2.90
2019-05-28T05:54:26.781Z,2.85
2019-05-28T05:56:56.964Z,2.60
2019-05-28T05:59:27.223Z,3.15
2019-05-28T06:01:57.448Z,2.03
2019-05-28T06:04:27.838Z,2.30
2019-05-28T06:07:00.915Z,3.07
2019-05-28T06:09:31.580Z,4.60
2019-05-28T06:12:01.966Z,2.40
2019-05-28T06:14:32.276Z,7.27
2019-05-28T06:17:02.557Z,2.50
2019-05-28T06:19:32.824Z,2.07
2019-05-28T06:22:03.182Z,2.80
2019-05-28T06:24:33.345Z,9.50
2019-05-28T06:27:03.675Z,3.13
2019-05-28T06:29:34.286Z,2.17
2019-05-28T06:32:05.206Z,2.23
2019-05-28T06:34:37.699Z,1.80
2019-05-28T06:37:08.037Z,2.03
2019-05-28T06:39:38.436Z,2.03
2019-05-28T06:42:09.982Z,2.63
2019-05-28T06:44:40.391Z,3.73
2019-05-28T06:47:10.880Z,2.20
2019-05-28T06:49:41.133Z,2.90
2019-05-28T06:52:11.396Z,5.90
2019-05-28T06:54:44.021Z,1.60
2019-05-28T06:57:22.712Z,1.70
2019-05-28T06:59:46.371Z,1.67
2019-05-28T07:02:16.705Z,1.97
2019-05-28T07:04:47.065Z,1.97
2019-05-28T07:07:20.140Z,3.30
2019-05-28T07:09:50.396Z,2.27
2019-05-28T07:12:20.528Z,1.80
2019-05-28T07:14:50.932Z,1.80
2019-05-28T07:17:22.871Z,2.00
2019-05-28T07:19:53.055Z,1.97
2019-05-28T07:22:23.315Z,5.90
2019-05-28T07:24:53.554Z,3.27
2019-05-28T07:27:25.640Z,2.57
2019-05-28T07:30:01.412Z,4.53
2019-05-28T07:32:32.441Z,2.20
2019-05-28T07:35:02.849Z,1.73
2019-05-28T07:37:34.056Z,2.23
2019-05-28T07:40:05.162Z,3.40
2019-05-28T07:42:35.467Z,2.30
2019-05-28T07:45:07.793Z,2.90
2019-05-28T07:47:39.051Z,2.60
2019-05-28T07:50:10.604Z,2.12
2019-05-28T07:52:41.168Z,4.60
2019-05-28T07:55:11.601Z,4.10
2019-05-28T07:57:41.740Z,1.83
2019-05-28T08:00:12.687Z,1.63
2019-05-28T08:02:42.821Z,2.60
2019-05-28T08:05:17.025Z,1.30
2019-05-28T08:07:46.250Z,2.12
2019-05-28T08:10:19.518Z,2.58
2019-05-28T08:12:49.621Z,5.72
2019-05-28T08:15:20.022Z,1.70
2019-05-28T08:17:52.940Z,2.90
2019-05-28T08:20:23.197Z,1.77
2019-05-28T08:22:53.351Z,2.00
2019-05-28T08:25:44.842Z,1.77
2019-05-28T08:27:55.610Z,3.20
2019-05-28T08:30:25.767Z,3.50
2019-05-28T08:32:56.046Z,2.17
2019-05-28T08:35:27.855Z,2.33
2019-05-28T08:37:59.336Z,2.50
2019-05-28T08:40:29.625Z,2.00
2019-05-28T08:43:00.071Z,2.58
2019-05-28T08:45:30.857Z,2.10
2019-05-28T08:48:01.191Z,2.20
2019-05-28T08:50:34.914Z,2.20
2019-05-28T08:53:03.753Z,2.10
2019-05-28T08:55:34.039Z,4.77
2019-05-28T08:58:04.567Z,4.27
2019-05-28T09:00:39.878Z,2.40
2019-05-28T09:03:10.399Z,2.37
2019-05-28T09:05:40.739Z,2.33
2019-05-28T09:08:11.163Z,4.43
2019-05-28T09:10:44.921Z,2.70
2019-05-28T09:13:15.562Z,2.80
2019-05-28T09:15:46.111Z,3.10
2019-05-28T09:18:19.804Z,5.50
2019-05-28T09:20:50.732Z,3.10
2019-05-28T09:23:21.606Z,3.63
2019-05-28T09:25:52.280Z,4.03
2019-05-28T09:28:29.801Z,5.10
2019-05-28T09:30:55.619Z,2.53
2019-05-28T09:33:29.920Z,2.37
2019-05-28T09:36:08.278Z,3.70
2019-05-28T09:38:34.255Z,4.03
2019-05-28T09:41:06.156Z,1.30
2019-05-28T09:43:36.968Z,1.10
2019-05-28T09:46:07.637Z,4.40
2019-05-28T09:48:38.156Z,4.37
2019-05-28T09:51:08.617Z,4.40
2019-05-28T09:53:39.507Z,3.33
2019-05-28T09:56:09.971Z,1.60
2019-05-28T09:58:41.101Z,2.23
2019-05-28T10:01:12.327Z,5.23
2019-05-28T10:03:43.496Z,1.90
2019-05-28T10:06:18.440Z,4.20
2019-05-28T10:08:51.374Z,10.13
2019-05-28T10:11:22.845Z,3.75
2019-05-28T10:13:53.464Z,2.83
2019-05-28T10:16:25.831Z,0.93
2019-05-28T10:18:56.964Z,2.90
2019-05-28T10:21:29.290Z,2.23
2019-05-28T10:23:59.977Z,3.27
2019-05-28T10:26:31.911Z,4.87
2019-05-28T10:29:03.545Z,4.30
2019-05-28T10:31:34.653Z,1.33
2019-05-28T10:34:06.360Z,5.73
2019-05-28T10:36:38.176Z,2.93
2019-05-28T10:39:09.287Z,1.07
2019-05-28T10:41:39.935Z,4.27
2019-05-28T10:44:10.975Z,5.07
2019-05-28T10:46:41.637Z,0.90
2019-05-28T10:49:12.241Z,4.30
2019-05-28T10:51:44.347Z,5.40
2019-05-28T10:54:15.101Z,2.60
2019-05-28T10:56:46.197Z,1.97
2019-05-28T10:59:16.932Z,1.10
2019-05-28T11:01:47.683Z,0.93
2019-05-28T11:04:18.814Z,2.70
2019-05-28T11:06:52.132Z,1.80
2019-05-28T11:09:23.104Z,1.43
2019-05-28T11:11:53.811Z,2.10
2019-05-28T11:14:24.290Z,2.72
2019-05-28T11:16:57.707Z,3.00
2019-05-28T11:19:28.359Z,3.90
2019-05-28T11:21:59.203Z,1.53
2019-05-28T11:24:30.770Z,1.77
2019-05-28T11:27:01.334Z,2.10
2019-05-28T11:29:31.966Z,2.30
2019-05-28T11:32:02.431Z,2.23
2019-05-28T11:34:33.092Z,2.00
2019-05-28T11:37:09.591Z,2.43
2019-05-28T11:39:36.461Z,3.37
2019-05-28T11:42:06.841Z,2.00
2019-05-28T11:44:37.202Z,1.97
2019-05-28T11:47:07.856Z,0.70
2019-05-28T11:49:38.175Z,2.30
2019-05-28T11:52:08.620Z,2.50
2019-05-28T11:54:38.777Z,2.10
2019-05-28T11:57:09.356Z,1.00
2019-05-28T11:59:39.857Z,1.60
2019-05-28T12:02:10.191Z,2.30
2019-05-28T12:04:40.572Z,3.20
2019-05-28T12:07:24.954Z,2.90
2019-05-28T12:09:43.143Z,1.23
2019-05-28T12:12:13.955Z,4.30
2019-05-28T12:14:44.307Z,0.90
2019-05-28T12:17:15.469Z,1.37
2019-05-28T12:19:45.706Z,2.80
2019-05-28T12:22:15.872Z,1.93
2019-05-28T12:24:46.066Z,1.82
2019-05-28T12:27:16.317Z,1.13
2019-05-28T12:29:51.816Z,1.30
2019-05-28T12:32:18.649Z,1.17
2019-05-28T12:34:49.027Z,1.87
2019-05-28T12:37:19.193Z,3.40
2019-05-28T12:39:49.442Z,2.57
2019-05-28T12:42:23.176Z,5.83
2019-05-28T12:45:08.828Z,2.80
2019-05-28T12:47:25.524Z,1.40
2019-05-28T12:50:14.308Z,1.37
2019-05-28T12:52:27.935Z,3.03
2019-05-28T12:54:59.336Z,1.53
2019-05-28T12:57:30.492Z,3.10
2019-05-28T13:00:00.781Z,2.23
2019-05-28T13:02:31.333Z,4.00
2019-05-28T13:05:01.644Z,2.57
2019-05-28T13:07:32.040Z,4.20
2019-05-28T13:10:02.446Z,4.40
2019-05-28T13:12:33.007Z,1.83
2019-05-28T13:15:03.544Z,2.30
2019-05-28T13:17:33.880Z,1.77
2019-05-28T13:20:04.320Z,2.00
2019-05-28T13:22:35.231Z,2.17
2019-05-28T13:25:05.906Z,2.63
2019-05-28T13:27:36.294Z,3.17
2019-05-28T13:30:07.642Z,2.17
2019-05-28T13:32:38.050Z,4.23
2019-05-28T13:35:09.339Z,2.23
2019-05-28T13:37:40.092Z,4.43
2019-05-28T13:40:11.020Z,2.05
2019-05-28T13:42:43.134Z,1.57
2019-05-28T13:45:14.042Z,2.00
2019-05-28T13:47:44.604Z,6.37
2019-05-28T13:50:15.520Z,6.53
2019-05-28T13:52:46.385Z,1.67
2019-05-28T13:55:17.098Z,8.40
2019-05-28T13:57:47.580Z,3.90
2019-05-28T14:00:18.654Z,1.60
2019-05-28T14:02:49.812Z,4.95
2019-05-28T14:05:20.746Z,1.33
2019-05-28T14:07:51.566Z,0.97
2019-05-28T14:10:21.889Z,1.87
2019-05-28T14:12:52.433Z,4.77
2019-05-28T14:15:25.722Z,2.57
2019-05-28T14:17:56.014Z,3.07
2019-05-28T14:20:26.346Z,3.63
2019-05-28T14:22:56.544Z,1.57
2019-05-28T14:25:26.896Z,3.70
2019-05-28T14:27:57.115Z,3.10
2019-05-28T14:30:27.807Z,3.12
2019-05-28T14:32:58.204Z,3.40
2019-05-28T14:35:28.736Z,9.67
2019-05-28T14:37:58.961Z,14.43
2019-05-28T14:40:30.941Z,9.83
2019-05-28T14:43:01.628Z,13.30
2019-05-28T14:45:32.199Z,8.90
2019-05-28T14:48:05.406Z,5.60
2019-05-28T14:50:35.680Z,4.60
2019-05-28T14:53:05.979Z,12.83
2019-05-28T14:55:36.535Z,4.20
2019-05-28T14:58:13.377Z,3.13
2019-05-28T15:00:41.314Z,3.30
2019-05-28T15:03:11.952Z,2.90
2019-05-28T15:05:42.444Z,1.73
2019-05-28T15:08:12.764Z,1.97
2019-05-28T15:10:42.988Z,4.50
2019-05-28T15:13:13.318Z,5.70
2019-05-28T15:15:43.971Z,6.10
2019-05-28T15:18:14.313Z,2.20
2019-05-28T15:20:45.274Z,2.67
2019-05-28T15:23:15.641Z,3.40
2019-05-28T15:25:45.956Z,2.63
2019-05-28T15:28:16.163Z,6.40
2019-05-28T15:30:47.787Z,2.17
2019-05-28T15:33:18.287Z,2.90
2019-05-28T15:35:48.640Z,2.40
2019-05-28T15:38:19.017Z,2.27
2019-05-28T15:40:49.376Z,2.67
2019-05-28T15:43:19.690Z,5.70
2019-05-28T15:45:50.415Z,1.83
2019-05-28T15:48:21.691Z,4.50
2019-05-28T15:50:51.888Z,6.73
2019-05-28T15:53:22.305Z,2.70
2019-05-28T15:55:52.669Z,2.10
2019-05-28T15:58:23.371Z,2.87
2019-05-28T16:00:53.832Z,9.40
2019-05-28T16:03:24.341Z,1.10
2019-05-28T16:05:58.038Z,3.70
2019-05-28T16:08:28.350Z,4.00
2019-05-28T16:10:58.586Z,1.33
2019-05-28T16:13:28.762Z,3.00
2019-05-28T16:15:59.017Z,1.63
2019-05-28T16:18:29.181Z,6.03
2019-05-28T16:20:59.441Z,4.35
2019-05-28T16:23:29.661Z,1.00
2019-05-28T16:26:00.845Z,4.10
2019-05-28T16:28:31.517Z,2.30
2019-05-28T16:31:12.550Z,2.83
2019-05-28T16:33:34.118Z,4.50
2019-05-28T16:36:04.444Z,3.13
2019-05-28T16:38:34.935Z,1.83
2019-05-28T16:41:05.544Z,2.30
2019-05-28T16:43:35.869Z,4.07
2019-05-28T16:46:06.170Z,0.87
2019-05-28T16:48:36.613Z,3.47
2019-05-28T16:51:07.121Z,1.43
2019-05-28T16:53:37.706Z,1.77
2019-05-28T16:56:08.036Z,1.83
2019-05-28T16:58:38.303Z,3.83
2019-05-28T17:01:21.801Z,4.90
2019-05-28T17:03:40.556Z,5.53
2019-05-28T17:06:10.827Z,5.43
2019-05-28T17:08:41.441Z,6.03
2019-05-28T17:11:12.745Z,9.63
2019-05-28T17:13:47.604Z,2.20
2019-05-28T17:16:18.903Z,6.30
2019-05-28T17:18:49.209Z,4.80
2019-05-28T17:21:22.890Z,6.47
2019-05-28T17:23:55.525Z,2.80
2019-05-28T17:26:25.802Z,2.03
2019-05-28T17:28:56.141Z,3.87
2019-05-28T17:31:27.347Z,5.23
2019-05-28T17:33:57.542Z,3.40
2019-05-28T17:36:27.809Z,7.70
2019-05-28T17:38:58.066Z,1.77
2019-05-28T17:41:28.490Z,3.63
2019-05-28T17:43:59.097Z,2.60
2019-05-28T17:46:29.493Z,2.70
2019-05-28T17:49:00.334Z,3.40
2019-05-28T17:51:30.695Z,3.90
2019-05-28T17:54:02.313Z,1.97
2019-05-28T17:56:32.915Z,1.00
2019-05-28T17:59:03.496Z,1.33
2019-05-28T18:01:33.862Z,4.27
2019-05-28T18:04:05.575Z,5.17
2019-05-28T18:06:38.742Z,3.97
2019-05-28T18:09:09.783Z,1.80
2019-05-28T18:11:40.831Z,3.55
2019-05-28T18:14:11.312Z,3.57
2019-05-28T18:16:41.617Z,3.50
2019-05-28T18:19:12.709Z,3.17
2019-05-28T18:21:43.494Z,5.23
2019-05-28T18:24:14.108Z,4.20
2019-05-28T18:26:44.479Z,6.95
2019-05-28T18:29:15.322Z,1.87
2019-05-28T18:31:46.155Z,1.40
2019-05-28T18:34:16.916Z,2.40
2019-05-28T18:36:47.550Z,1.10
2019-05-28T18:39:18.396Z,2.73
2019-05-28T18:41:49.136Z,2.80
2019-05-28T18:44:20.081Z,2.17
2019-05-28T18:46:51.408Z,2.10
2019-05-28T18:49:22.205Z,6.23
2019-05-28T18:51:53.015Z,2.07
2019-05-28T18:54:23.519Z,2.50
2019-05-28T18:56:54.237Z,1.60
2019-05-28T18:59:24.722Z,2.97
2019-05-28T19:01:59.021Z,1.20
2019-05-28T19:04:28.082Z,1.53
2019-05-28T19:06:58.705Z,1.93
2019-05-28T19:09:29.297Z,6.67
2019-05-28T19:12:00.273Z,1.00
2019-05-28T19:14:30.717Z,1.63
2019-05-28T19:17:01.530Z,2.72
2019-05-28T19:19:32.279Z,4.50
2019-05-28T19:22:02.877Z,1.90
2019-05-28T19:24:45.751Z,2.67
2019-05-28T19:27:16.787Z,4.53
2019-05-28T19:29:50.496Z,1.63
2019-05-28T19:32:19.750Z,3.47
2019-05-28T19:34:50.405Z,2.10
2019-05-28T19:37:21.638Z,13.13
2019-05-28T19:39:52.499Z,3.80
2019-05-28T19:42:23.334Z,2.23
2019-05-28T19:44:54.085Z,2.30
2019-05-28T19:47:24.674Z,1.30
2019-05-28T19:49:55.593Z,7.13
2019-05-28T19:52:26.321Z,6.00
2019-05-28T20:00:45.609Z,1.90
2019-05-28T20:03:16.270Z,3.00
2019-05-28T20:05:46.746Z,1.53
2019-05-28T20:08:17.624Z,4.00
2019-05-28T20:10:50.715Z,2.80
2019-05-28T20:13:21.639Z,3.27
2019-05-28T20:15:52.334Z,2.80
2019-05-28T20:18:26.631Z,2.23
2019-05-28T20:20:56.258Z,2.03
2019-05-28T20:23:26.997Z,1.60
2019-05-28T20:25:57.507Z,4.47
2019-05-28T20:28:28.604Z,2.20
2019-05-28T20:31:01.856Z,4.90
2019-05-28T20:33:34.182Z,8.10
2019-05-28T20:36:05.873Z,7.40
2019-05-28T20:38:36.837Z,2.87
2019-05-28T20:41:08.091Z,2.30
2019-05-28T20:43:39.454Z,1.93
2019-05-28T20:46:10.671Z,6.07
2019-05-28T20:48:41.574Z,4.23
2019-05-28T20:51:21.034Z,2.67
2019-05-28T20:53:44.964Z,4.30
2019-05-28T20:56:15.965Z,4.47
2019-05-28T20:58:47.392Z,2.25
2019-05-28T21:01:18.127Z,2.20
2019-05-28T21:03:49.745Z,1.97
2019-05-28T21:06:20.500Z,9.13
2019-05-28T21:08:52.068Z,2.83
2019-05-28T21:11:27.071Z,2.00
2019-05-28T21:13:58.911Z,2.40
2019-05-28T21:16:29.567Z,4.30
2019-05-28T21:19:00.172Z,2.83
2019-05-28T21:21:31.259Z,3.90
2019-05-28T21:24:02.036Z,1.83
2019-05-28T21:26:35.823Z,2.43
2019-05-28T21:29:06.610Z,3.90
2019-05-28T21:31:37.309Z,1.87
2019-05-28T21:34:07.613Z,2.55
2019-05-28T21:36:37.854Z,1.80
2019-05-28T21:39:08.840Z,3.73
2019-05-28T21:41:39.086Z,2.40
2019-05-28T21:44:09.302Z,3.92
2019-05-28T21:46:39.740Z,1.80
2019-05-28T21:49:10.265Z,1.83
2019-05-28T21:51:40.886Z,3.20
2019-05-28T21:54:11.163Z,2.33
2019-05-28T21:56:41.411Z,2.23
2019-05-28T21:59:11.593Z,1.03
2019-05-28T22:01:45.375Z,2.70
2019-05-28T22:04:15.707Z,1.23
2019-05-28T22:06:45.918Z,1.60
2019-05-28T22:09:16.311Z,1.50
2019-05-28T22:11:46.565Z,3.30
2019-05-28T22:14:16.875Z,4.43
2019-05-28T22:16:49.449Z,3.37
2019-05-28T22:19:19.805Z,1.10
2019-05-28T22:21:50.009Z,1.37
2019-05-28T22:24:20.171Z,6.13
2019-05-28T22:26:50.811Z,3.17
2019-05-28T22:29:21.338Z,1.33
2019-05-28T22:31:54.581Z,1.27
2019-05-28T22:34:24.788Z,4.67
2019-05-28T22:36:56.153Z,2.07
2019-05-28T22:39:29.502Z,2.10
2019-05-28T22:41:59.682Z,1.37
2019-05-28T22:44:30.528Z,2.90
2019-05-28T22:47:01.141Z,6.53
2019-05-28T22:49:31.248Z,5.60
2019-05-28T22:52:01.874Z,1.13
2019-05-28T22:54:32.229Z,1.43
2019-05-28T22:57:04.065Z,6.55
2019-05-28T22:59:36.480Z,2.00
2019-05-28T23:02:07.058Z,2.00
2019-05-28T23:04:37.281Z,3.40
2019-05-28T23:07:07.576Z,2.97
2019-05-28T23:09:37.796Z,3.23
2019-05-28T23:12:10.060Z,1.67
2019-05-28T23:14:40.428Z,1.87
2019-05-28T23:17:11.067Z,2.40
2019-05-28T23:19:41.242Z,4.93
2019-05-28T23:22:11.615Z,3.43
2019-05-28T23:24:41.829Z,4.13
2019-05-28T23:27:12.455Z,1.90
2019-05-28T23:29:42.838Z,2.60
2019-05-28T23:32:13.232Z,1.40
2019-05-28T23:34:43.388Z,1.73
2019-05-28T23:37:13.691Z,1.30
2019-05-28T23:39:43.820Z,1.83
2019-05-28T23:42:13.994Z,2.30
2019-05-28T23:44:44.685Z,2.60
2019-05-28T23:47:15.106Z,6.53
2019-05-28T23:49:45.435Z,1.70
2019-05-28T23:52:16.880Z,4.45
2019-05-28T23:54:48.695Z,1.80
2019-05-28T23:57:19.045Z,7.40
2019-05-28T23:59:49.907Z,2.50
